Time;durP1;ratioP1;P1;durP2;ratioP2;P2;SDS_P1;SDS_P2;PMS_P1;PMS_P2;Temp;Humidity;BMP_temperature;BMP_pressure;BME280_temperature;BME280_humidity;BME280_pressure;Samples;Min_cycle;Max_cycle;Signal;HPM_P1;HPM_P2
2022/04/13 00:01:29;;;;;;;;;58.50;47.50;14.30;43.60;;;;;;4948241;28;8816;-60
2022/04/13 00:03:55;;;;;;;;;71.50;55.50;14.30;43.60;;;;;;4958057;28;8851;-59
2022/04/13 00:06:21;;;;;;;;;55.50;45.75;14.30;43.60;;;;;;4958070;28;8902;-59
2022/04/13 00:08:47;;;;;;;;;66.50;52.00;14.30;43.00;;;;;;4957975;28;8853;-59
2022/04/13 00:11:13;;;;;;;;;59.75;47.75;14.20;43.80;;;;;;4957673;28;8789;-60
2022/04/13 00:13:40;;;;;;;;;58.25;49.50;14.20;43.90;;;;;;4957769;28;8792;-60
2022/04/13 00:16:07;;;;;;;;;58.75;47.50;14.10;44.10;;;;;;4957920;28;8816;-58
2022/04/13 00:18:32;;;;;;;;;59.25;47.50;14.00;44.30;;;;;;4957578;28;8811;-61
2022/04/13 00:20:58;;;;;;;;;57.00;48.00;13.90;44.80;;;;;;4957189;28;8784;-59
2022/04/13 00:23:24;;;;;;;;;58.75;48.75;14.00;45.10;;;;;;4957611;28;8811;-60
2022/04/13 00:25:49;;;;;;;;;56.00;47.25;14.10;45.00;;;;;;4957464;28;8781;-60
2022/04/13 00:28:16;;;;;;;;;57.50;49.00;14.10;45.90;;;;;;4957662;28;8859;-59
2022/04/13 00:30:42;;;;;;;;;54.50;44.75;14.10;46.30;;;;;;4957384;28;8776;-59
2022/04/13 00:33:08;;;;;;;;;52.75;44.00;14.00;46.70;;;;;;4957523;28;8816;-59
2022/04/13 00:35:34;;;;;;;;;53.25;44.25;13.90;47.20;;;;;;4957272;28;8847;-60
2022/04/13 00:38:00;;;;;;;;;49.50;40.50;13.90;48.00;;;;;;4957473;28;8898;-60
2022/04/13 00:40:26;;;;;;;;;47.25;39.00;13.80;48.50;;;;;;4957162;28;8772;-60
2022/04/13 00:42:51;;;;;;;;;47.75;41.50;13.70;48.90;;;;;;4957140;28;8815;-60
2022/04/13 00:45:17;;;;;;;;;48.50;41.00;13.60;49.80;;;;;;4957251;28;8816;-60
2022/04/13 00:47:47;;;;;;;;;47.50;41.50;13.60;49.20;;;;;;4957351;28;8768;-59
2022/04/13 00:50:14;;;;;;;;;40.00;36.50;13.60;49.40;;;;;;4957243;28;9470;-59
2022/04/13 00:52:44;;;;;;;;;52.00;43.25;13.60;50.00;;;;;;4975836;28;9562;-59
2022/04/13 00:55:13;;;;;;;;;49.00;41.25;13.40;50.60;;;;;;4976473;28;8817;-60
2022/04/13 00:57:41;;;;;;;;;51.25;42.00;13.60;51.00;;;;;;4976217;28;8769;-60
2022/04/13 01:00:09;;;;;;;;;40.00;36.00;13.50;50.80;;;;;;4976437;28;8839;-60
2022/04/13 01:02:36;;;;;;;;;52.25;43.75;13.40;51.00;;;;;;4976268;28;8831;-60
2022/04/13 01:05:06;;;;;;;;;47.75;41.75;13.10;52.40;;;;;;4976027;28;8905;-59
2022/04/13 01:07:32;;;;;;;;;49.25;40.75;12.80;53.30;;;;;;4976268;28;8777;-59
2022/04/13 01:10:00;;;;;;;;;27.75;27.00;12.50;53.20;;;;;;4976090;28;9474;-60
2022/04/13 01:12:26;;;;;;;;;40.25;36.25;12.10;53.60;;;;;;4976283;28;8844;-59
2022/04/13 01:14:53;;;;;;;;;41.25;38.25;12.20;52.80;;;;;;4975986;28;8785;-59
2022/04/13 01:17:19;;;;;;;;;44.25;37.25;12.10;52.00;;;;;;4976117;28;8757;-59
2022/04/13 01:19:46;;;;;;;;;44.00;38.50;12.20;51.10;;;;;;4975854;28;8816;-60
2022/04/13 01:22:22;;;;;;;;;45.25;38.25;12.00;52.00;;;;;;4975824;28;8792;-59
2022/04/13 01:24:49;;;;;;;;;47.25;39.50;11.80;52.20;;;;;;4975992;28;8808;-59
2022/04/13 01:27:16;;;;;;;;;48.00;40.50;11.80;52.30;;;;;;4975995;28;8765;-59
2022/04/13 01:29:43;;;;;;;;;48.25;41.50;11.40;53.80;;;;;;4976018;28;8769;-60
2022/04/13 01:32:12;;;;;;;;;47.25;40.25;11.60;53.20;;;;;;4975619;28;9503;-60
2022/04/13 01:34:49;;;;;;;;;52.25;42.25;11.90;52.50;;;;;;4975204;28;8795;-59
2022/04/13 01:37:15;;;;;;;;;50.50;43.00;11.20;55.00;;;;;;4975754;28;8784;-60
2022/04/13 01:39:41;;;;;;;;;45.50;38.50;11.20;55.30;;;;;;4975701;28;8773;-59
2022/04/13 01:42:07;;;;;;;;;46.75;40.25;11.40;54.40;;;;;;4975570;28;8883;-59
2022/04/13 01:44:33;;;;;;;;;49.25;42.50;11.50;53.80;;;;;;4975536;28;8820;-59
2022/04/13 01:46:59;;;;;;;;;51.75;44.00;11.60;53.60;;;;;;4975622;28;8769;-58
2022/04/13 01:49:24;;;;;;;;;43.50;39.25;11.70;52.90;;;;;;4975511;28;8807;-60
2022/04/13 01:51:50;;;;;;;;;48.75;41.00;11.70;52.50;;;;;;4975464;28;8820;-59
2022/04/13 01:54:16;;;;;;;;;51.75;42.00;11.40;53.90;;;;;;4975510;28;8907;-61
2022/04/13 01:56:42;;;;;;;;;48.75;41.50;11.30;54.40;;;;;;4975692;28;8795;-61
2022/04/13 01:59:08;;;;;;;;;52.25;43.75;11.20;55.00;;;;;;4975429;28;8777;-59
2022/04/13 02:01:41;;;;;;;;;51.25;42.75;11.60;53.60;;;;;;4975365;28;8807;-59
2022/04/13 02:04:19;;;;;;;;;53.25;44.25;11.90;52.30;;;;;;4975743;28;8914;-59
2022/04/13 02:06:45;;;;;;;;;42.00;39.00;11.90;51.50;;;;;;4975780;28;8773;-59
2022/04/13 02:09:11;;;;;;;;;50.00;42.00;11.80;51.70;;;;;;4975265;28;8795;-60
2022/04/13 02:11:37;;;;;;;;;43.75;37.00;11.30;53.50;;;;;;4975316;28;8899;-59
2022/04/13 02:14:03;;;;;;;;;47.25;40.00;11.60;52.60;;;;;;4975531;28;8765;-59
2022/04/13 02:16:28;;;;;;;;;40.75;36.75;11.90;51.70;;;;;;4975476;28;9727;-59
2022/04/13 02:18:54;;;;;;;;;47.75;41.00;12.00;51.00;;;;;;4975555;28;9527;-59
2022/04/13 02:21:20;;;;;;;;;44.50;38.50;12.10;50.60;;;;;;4975405;28;8788;-59
2022/04/13 02:23:46;;;;;;;;;52.00;43.00;12.20;50.00;;;;;;4975059;28;8813;-58
2022/04/13 02:26:13;;;;;;;;;49.00;41.50;12.10;50.40;;;;;;4975205;28;8773;-58
2022/04/13 02:28:38;;;;;;;;;50.50;38.50;12.20;50.00;;;;;;4975437;28;8777;-58
2022/04/13 02:31:04;;;;;;;;;51.00;41.75;12.20;50.00;;;;;;4975029;28;9779;-58
2022/04/13 02:33:31;;;;;;;;;48.50;40.25;12.00;50.30;;;;;;4975473;28;8940;-59
2022/04/13 02:35:58;;;;;;;;;49.00;40.00;11.80;50.80;;;;;;4975055;28;8769;-60
2022/04/13 02:38:25;;;;;;;;;51.50;41.75;11.90;50.90;;;;;;4975050;28;8785;-58
2022/04/13 02:40:51;;;;;;;;;49.00;41.25;12.10;50.50;;;;;;4975036;28;8761;-59
2022/04/13 02:43:17;;;;;;;;;50.00;43.00;12.20;50.10;;;;;;4975316;28;8777;-58
2022/04/13 02:45:43;;;;;;;;;44.00;39.25;12.00;51.40;;;;;;4978081;28;8915;-58
2022/04/13 02:48:08;;;;;;;;;51.25;41.00;11.90;50.60;;;;;;4978850;28;9501;-58
2022/04/13 02:50:34;;;;;;;;;49.50;43.00;12.00;50.50;;;;;;4978258;28;8810;-60
2022/04/13 02:53:00;;;;;;;;;53.75;44.25;11.90;50.80;;;;;;4978822;28;8875;-60
2022/04/13 02:55:26;;;;;;;;;50.75;42.50;12.00;50.70;;;;;;4978498;28;8781;-59
2022/04/13 02:57:52;;;;;;;;;50.25;43.00;11.60;52.20;;;;;;4978673;28;8776;-60
2022/04/13 03:00:18;;;;;;;;;54.00;41.50;11.50;52.50;;;;;;4978354;28;8908;-60
2022/04/13 03:02:44;;;;;;;;;51.00;42.75;11.20;54.60;;;;;;4978353;28;8812;-59
2022/04/13 03:05:11;;;;;;;;;44.25;39.25;11.50;52.80;;;;;;4961165;28;8839;-59
2022/04/13 03:07:37;;;;;;;;;53.00;44.50;11.60;52.50;;;;;;4978506;28;8780;-59
2022/04/13 03:10:04;;;;;;;;;50.50;43.00;11.40;52.90;;;;;;4978407;28;8815;-59
2022/04/13 03:12:30;;;;;;;;;45.75;38.25;11.70;52.00;;;;;;4978180;28;8789;-60
2022/04/13 03:14:55;;;;;;;;;53.00;44.25;11.50;52.50;;;;;;4978314;28;8777;-59
2022/04/13 03:17:21;;;;;;;;;55.25;45.00;11.60;51.90;;;;;;4978334;28;8753;-59
2022/04/13 03:19:47;;;;;;;;;56.00;43.75;11.50;52.20;;;;;;4977972;28;8784;-59
2022/04/13 03:22:12;;;;;;;;;47.50;40.75;11.60;51.80;;;;;;4977974;28;8801;-59
2022/04/13 03:24:38;;;;;;;;;55.50;44.75;11.60;52.00;;;;;;4977895;28;8808;-60
2022/04/13 03:27:04;;;;;;;;;56.00;47.00;11.50;52.40;;;;;;4977975;28;8922;-60
2022/04/13 03:29:29;;;;;;;;;54.50;44.50;11.50;52.30;;;;;;4978043;28;8815;-60
2022/04/13 03:31:55;;;;;;;;;53.00;45.25;11.50;52.60;;;;;;4977972;28;8784;-59
2022/04/13 03:34:21;;;;;;;;;46.50;38.75;11.50;52.60;;;;;;4977973;28;8765;-59
2022/04/13 03:36:48;;;;;;;;;64.25;52.50;11.60;52.50;;;;;;4977723;28;8769;-58
2022/04/13 03:39:14;;;;;;;;;53.75;44.75;11.20;53.50;;;;;;4977935;28;8761;-59
2022/04/13 03:41:40;;;;;;;;;57.25;47.75;10.90;55.50;;;;;;4977858;28;8824;-59
2022/04/13 03:44:06;;;;;;;;;56.75;47.75;10.50;56.80;;;;;;4977737;28;8821;-59
2022/04/13 03:46:32;;;;;;;;;53.75;43.50;10.30;57.30;;;;;;4977533;28;8792;-59
2022/04/13 03:48:58;;;;;;;;;54.75;45.75;10.20;57.80;;;;;;4977769;28;8777;-59
2022/04/13 03:51:24;;;;;;;;;61.00;50.50;10.00;59.60;;;;;;4977453;28;8801;-59
2022/04/13 03:53:50;;;;;;;;;69.25;54.75;10.00;60.10;;;;;;4977533;28;8776;-59
2022/04/13 03:56:16;;;;;;;;;85.00;72.00;10.00;60.20;;;;;;4976382;28;8765;-59
2022/04/13 03:58:42;;;;;;;;;98.50;92.25;10.10;59.80;;;;;;4977300;28;8781;-59
2022/04/13 04:01:08;;;;;;;;;98.00;92.50;10.50;58.00;;;;;;4977240;28;8795;-59
2022/04/13 04:03:35;;;;;;;;;89.00;85.00;10.60;57.00;;;;;;4977070;28;8808;-59
2022/04/13 04:06:01;;;;;;;;;89.25;83.75;11.10;55.10;;;;;;4977171;28;9532;-59
2022/04/13 04:08:28;;;;;;;;;88.50;79.25;11.30;54.30;;;;;;4977366;28;8777;-59
2022/04/13 04:10:54;;;;;;;;;109.75;105.25;11.30;54.00;;;;;;4977284;28;8803;-59
2022/04/13 04:13:20;;;;;;;;;103.75;98.00;11.00;55.10;;;;;;4977138;28;8793;-59
2022/04/13 04:15:46;;;;;;;;;89.50;80.50;10.80;55.90;;;;;;4977163;28;8795;-59
2022/04/13 04:18:12;;;;;;;;;97.25;88.50;10.90;56.00;;;;;;4977238;28;8895;-59
2022/04/13 04:20:37;;;;;;;;;86.75;71.25;10.60;57.00;;;;;;4976885;28;9538;-59
2022/04/13 04:23:03;;;;;;;;;87.00;73.00;10.70;56.30;;;;;;4977127;28;8780;-59
2022/04/13 04:25:29;;;;;;;;;82.75;67.50;10.90;55.70;;;;;;4959675;28;8934;-59
2022/04/13 04:27:55;;;;;;;;;83.00;67.75;10.90;55.50;;;;;;4976996;28;8777;-59
2022/04/13 04:30:21;;;;;;;;;79.50;63.25;10.40;57.20;;;;;;4976931;28;8773;-59
2022/04/13 04:32:47;;;;;;;;;80.50;63.25;10.40;57.90;;;;;;4976596;28;8911;-59
2022/04/13 04:35:12;;;;;;;;;78.25;63.25;10.00;58.80;;;;;;4976636;28;8784;-59
2022/04/13 04:37:38;;;;;;;;;73.50;59.75;10.20;59.10;;;;;;4976568;28;8808;-59
2022/04/13 04:40:05;;;;;;;;;73.50;57.75;10.40;57.70;;;;;;4976568;28;8796;-58
2022/04/13 04:42:30;;;;;;;;;72.50;59.50;10.50;57.20;;;;;;4950938;28;8877;-58
2022/04/13 04:44:57;;;;;;;;;73.00;58.00;10.80;56.30;;;;;;4938166;29;8908;-59
2022/04/13 04:47:26;;;;;;;;;77.25;60.25;10.90;55.40;;;;;;4951955;28;8783;-59
2022/04/13 04:49:52;;;;;;;;;69.75;57.75;10.60;55.80;;;;;;4948158;28;8803;-58
2022/04/13 04:52:18;;;;;;;;;71.75;58.75;10.80;55.80;;;;;;4941869;29;8830;-58
2022/04/13 04:54:45;;;;;;;;;67.50;55.00;11.00;54.70;;;;;;4954423;28;8809;-59
2022/04/13 04:57:11;;;;;;;;;73.25;59.50;11.20;54.20;;;;;;4952677;28;8804;-59
2022/04/13 04:59:37;;;;;;;;;74.25;59.00;11.10;54.30;;;;;;4949219;28;8827;-58
2022/04/13 05:02:03;;;;;;;;;72.25;58.75;11.10;54.40;;;;;;4956712;28;8781;-58
2022/04/13 05:04:29;;;;;;;;;65.00;53.00;11.00;54.70;;;;;;4956614;28;8816;-59
2022/04/13 05:06:54;;;;;;;;;70.50;57.25;11.10;54.30;;;;;;4956480;28;8792;-64
2022/04/13 05:09:22;;;;;;;;;75.75;59.75;10.80;54.70;;;;;;4952784;28;8800;-63
2022/04/13 05:11:48;;;;;;;;;80.75;64.50;11.10;54.70;;;;;;4953843;28;8800;-62
2022/04/13 05:14:16;;;;;;;;;75.50;60.00;11.00;54.70;;;;;;4956386;28;8789;-63
2022/04/13 05:16:42;;;;;;;;;78.75;62.50;11.10;54.40;;;;;;4955144;28;8782;-63
2022/04/13 05:19:07;;;;;;;;;83.50;68.75;11.30;53.90;;;;;;4956741;28;8772;-63
2022/04/13 05:21:33;;;;;;;;;81.75;66.75;11.40;53.90;;;;;;4956409;28;8769;-63
2022/04/13 05:23:59;;;;;;;;;75.50;60.25;11.50;53.20;;;;;;4956637;28;9237;-63
2022/04/13 05:26:24;;;;;;;;;73.00;57.00;11.70;52.30;;;;;;4956423;28;8899;-63
2022/04/13 05:28:50;;;;;;;;;75.25;59.50;11.70;51.90;;;;;;4956435;28;8785;-63
2022/04/13 05:31:16;;;;;;;;;78.00;60.75;11.40;52.60;;;;;;4956672;28;8932;-63
2022/04/13 05:33:42;;;;;;;;;83.75;74.75;11.40;52.90;;;;;;4956865;28;8824;-63
2022/04/13 05:36:08;;;;;;;;;78.50;62.00;11.50;53.00;;;;;;4956185;28;8776;-63
2022/04/13 05:38:34;;;;;;;;;77.25;62.25;11.80;52.30;;;;;;4956298;28;8784;-64
2022/04/13 05:40:59;;;;;;;;;61.00;51.00;12.00;51.50;;;;;;4956208;28;8796;-64
2022/04/13 05:43:28;;;;;;;;;69.25;55.25;11.80;51.20;;;;;;4956243;28;8855;-63
2022/04/13 05:45:54;;;;;;;;;68.25;55.50;12.10;50.60;;;;;;4956184;28;9765;-64
2022/04/13 05:48:20;;;;;;;;;69.75;56.25;12.20;50.30;;;;;;4956391;28;8816;-62
2022/04/13 05:50:45;;;;;;;;;65.25;53.75;12.40;50.20;;;;;;4956019;28;8807;-63
2022/04/13 05:53:11;;;;;;;;;64.00;52.25;12.40;49.10;;;;;;4956173;29;8791;-63
2022/04/13 05:55:37;;;;;;;;;69.00;54.25;12.40;49.50;;;;;;4956142;29;8871;-63
2022/04/13 05:58:02;;;;;;;;;71.75;58.00;12.50;49.00;;;;;;4956080;29;9462;-64
2022/04/13 06:00:28;;;;;;;;;69.00;55.25;12.60;48.20;;;;;;4956232;28;8858;-63
2022/04/13 06:02:54;;;;;;;;;62.50;51.75;12.60;48.20;;;;;;4956250;28;8930;-63
2022/04/13 06:05:21;;;;;;;;;63.00;50.50;12.80;47.90;;;;;;4955955;28;8820;-64
2022/04/13 06:07:47;;;;;;;;;57.00;46.25;12.70;47.30;;;;;;4956035;28;8780;-64
2022/04/13 06:10:15;;;;;;;;;60.25;49.50;12.60;47.00;;;;;;4956002;28;8863;-64
2022/04/13 06:12:41;;;;;;;;;61.75;50.25;12.40;47.60;;;;;;4955852;29;8887;-64
2022/04/13 06:15:11;;;;;;;;;60.75;50.50;12.30;47.50;;;;;;4955884;29;8784;-61
2022/04/13 06:17:38;;;;;;;;;64.00;53.25;12.10;48.10;;;;;;4956055;28;9443;-61
2022/04/13 06:20:05;;;;;;;;;57.50;47.75;12.50;47.20;;;;;;4956739;28;8792;-61
2022/04/13 06:22:33;;;;;;;;;62.75;51.25;12.90;46.20;;;;;;4959870;28;8804;-62
2022/04/13 06:25:02;;;;;;;;;59.25;49.00;13.20;45.50;;;;;;4959581;28;8831;-61
2022/04/13 06:27:28;;;;;;;;;63.75;51.25;13.40;44.70;;;;;;4959620;28;8788;-62
2022/04/13 06:29:53;;;;;;;;;59.50;48.75;13.50;45.20;;;;;;4959611;28;8791;-61
2022/04/13 06:32:19;;;;;;;;;47.50;40.50;13.20;44.70;;;;;;4959463;28;9024;-62
2022/04/13 06:34:45;;;;;;;;;49.25;42.75;13.40;43.90;;;;;;4959796;28;8800;-61
2022/04/13 06:37:11;;;;;;;;;45.50;38.00;13.60;43.20;;;;;;4959530;28;8967;-61
2022/04/13 06:39:36;;;;;;;;;50.50;41.75;13.70;43.00;;;;;;4959405;28;8898;-61
2022/04/13 06:42:03;;;;;;;;;43.50;37.25;14.00;42.30;;;;;;4959558;28;8846;-62
2022/04/13 06:44:28;;;;;;;;;42.00;38.25;14.00;42.30;;;;;;4959542;28;8816;-62
2022/04/13 06:46:54;;;;;;;;;38.00;35.25;14.30;41.50;;;;;;4959287;28;8788;-62
2022/04/13 06:49:20;;;;;;;;;40.00;37.00;14.20;41.60;;;;;;4959540;28;8804;-62
2022/04/13 06:51:46;;;;;;;;;38.25;34.00;13.80;40.70;;;;;;4959067;28;8824;-62
2022/04/13 06:54:11;;;;;;;;;38.25;36.00;12.70;43.50;;;;;;4959067;28;8808;-62
2022/04/13 06:56:39;;;;;;;;;39.75;35.25;13.10;43.10;;;;;;4959155;28;8887;-62
2022/04/13 06:59:05;;;;;;;;;37.75;35.75;13.10;42.70;;;;;;4959042;28;8777;-64
2022/04/13 07:01:31;;;;;;;;;34.75;32.25;13.10;43.10;;;;;;4958818;28;8912;-61
2022/04/13 07:03:57;;;;;;;;;41.50;34.50;13.20;43.30;;;;;;4958985;28;8836;-63
2022/04/13 07:06:23;;;;;;;;;28.00;28.00;13.60;43.10;;;;;;4958832;28;8784;-62
2022/04/13 07:08:48;;;;;;;;;34.50;32.25;13.90;41.80;;;;;;4958748;28;8780;-61
2022/04/13 07:11:14;;;;;;;;;34.25;34.00;13.40;41.60;;;;;;4958918;28;8788;-60
2022/04/13 07:13:40;;;;;;;;;33.75;32.25;13.40;42.50;;;;;;4959067;28;8804;-60
2022/04/13 07:16:05;;;;;;;;;32.50;30.50;14.00;41.10;;;;;;4958775;28;8920;-60
2022/04/13 07:18:32;;;;;;;;;34.50;32.00;14.40;40.40;;;;;;4958973;28;8780;-64
2022/04/13 07:20:58;;;;;;;;;29.75;26.75;14.80;39.60;;;;;;4958702;28;8800;-64
2022/04/13 07:23:24;;;;;;;;;27.00;27.00;14.90;39.80;;;;;;4958631;28;8768;-64
2022/04/13 07:25:50;;;;;;;;;34.00;30.50;14.20;41.40;;;;;;4958452;28;8824;-64
2022/04/13 07:28:16;;;;;;;;;33.50;32.75;14.70;41.30;;;;;;4958548;28;8855;-63
2022/04/13 07:30:41;;;;;;;;;33.75;33.50;14.70;40.00;;;;;;4958550;28;8773;-63
2022/04/13 07:33:08;;;;;;;;;38.25;33.75;14.60;40.80;;;;;;4958723;28;8820;-64
2022/04/13 07:35:33;;;;;;;;;36.50;32.25;14.70;40.90;;;;;;4958567;28;8898;-63
2022/04/13 07:37:59;;;;;;;;;33.00;32.75;15.20;39.60;;;;;;4958430;28;8890;-62
2022/04/13 07:40:25;;;;;;;;;40.50;35.00;14.90;39.90;;;;;;4950763;29;8810;-64
2022/04/13 07:42:51;;;;;;;;;32.00;29.75;15.30;39.30;;;;;;4939073;29;8786;-63
2022/04/13 07:45:17;;;;;;;;;29.75;28.25;15.30;38.20;;;;;;4939004;29;8818;-63
2022/04/13 07:47:43;;;;;;;;;27.50;25.00;14.60;38.70;;;;;;4938863;29;8867;-61
2022/04/13 07:50:13;;;;;;;;;25.33;25.33;14.90;38.50;;;;;;4939182;29;8786;-62
2022/04/13 07:52:40;;;;;;;;;24.67;21.67;14.50;37.80;;;;;;4938773;29;8834;-61
2022/04/13 07:55:07;;;;;;;;;25.00;24.67;14.20;37.50;;;;;;4938390;29;8849;-62
2022/04/13 07:57:33;;;;;;;;;23.67;21.67;14.30;37.40;;;;;;4952009;28;8812;-64
2022/04/13 07:59:59;;;;;;;;;22.67;22.67;14.60;36.70;;;;;;4955837;28;9431;-63
2022/04/13 08:02:25;;;;;;;;;30.00;28.33;14.60;35.50;;;;;;4956828;28;8827;-63
2022/04/13 08:04:50;;;;;;;;;24.33;22.33;14.90;35.50;;;;;;4956869;28;8828;-62
2022/04/13 08:07:16;;;;;;;;;28.33;27.33;14.90;35.50;;;;;;4955101;28;8847;-63
2022/04/13 08:09:42;;;;;;;;;24.00;22.00;15.10;37.00;;;;;;4956784;28;8816;-59
2022/04/13 08:12:08;;;;;;;;;17.00;17.00;14.90;35.20;;;;;;4956536;28;8784;-62
2022/04/13 08:14:34;;;;;;;;;26.00;22.33;14.90;35.10;;;;;;4956659;28;8783;-63
2022/04/13 08:17:03;;;;;;;;;20.00;20.00;14.80;35.70;;;;;;4957011;28;8796;-62
2022/04/13 08:19:30;;;;;;;;;18.00;18.00;15.00;33.70;;;;;;4957237;28;8776;-62
2022/04/13 08:21:56;;;;;;;;;23.67;22.00;14.80;34.50;;;;;;4956868;28;8780;-60
2022/04/13 08:24:22;;;;;;;;;19.67;18.33;14.70;36.60;;;;;;4956629;28;8812;-60
2022/04/13 08:26:47;;;;;;;;;21.33;21.33;14.90;35.30;;;;;;4956506;28;8788;-62
2022/04/13 08:29:13;;;;;;;;;22.33;21.67;15.20;37.20;;;;;;4956650;28;9438;-59
2022/04/13 08:31:39;;;;;;;;;24.67;22.33;15.00;35.10;;;;;;4956509;28;8792;-61
2022/04/13 08:34:04;;;;;;;;;31.00;29.00;15.20;37.00;;;;;;4957423;28;8832;-60
2022/04/13 08:36:30;;;;;;;;;24.33;24.33;15.40;36.80;;;;;;4957262;28;8789;-61
2022/04/13 08:38:56;;;;;;;;;21.67;21.00;15.60;34.70;;;;;;4957545;28;8859;-60
2022/04/13 08:41:40;;;;;;;;;16.33;16.00;15.80;34.30;;;;;;4957163;28;8843;-59
2022/04/13 08:44:15;;;;;;;;;20.33;19.00;15.50;34.10;;;;;;4957264;28;8938;-61
2022/04/13 08:46:44;;;;;;;;;21.67;21.67;15.40;35.00;;;;;;4957254;28;8796;-59
2022/04/13 08:49:14;;;;;;;;;26.33;25.33;15.30;32.70;;;;;;4956903;28;8819;-60
2022/04/13 08:51:40;;;;;;;;;21.33;21.00;15.30;35.30;;;;;;4956897;28;8828;-60
2022/04/13 08:54:17;;;;;;;;;22.67;22.67;15.40;33.80;;;;;;4957235;28;8804;-62
2022/04/13 08:56:45;;;;;;;;;16.00;16.00;15.40;33.90;;;;;;4956913;28;8780;-61
2022/04/13 08:59:18;;;;;;;;;20.00;19.00;15.50;30.10;;;;;;4956881;28;8876;-60
2022/04/13 09:01:47;;;;;;;;;22.00;22.00;15.60;34.00;;;;;;4956886;28;8796;-60
2022/04/13 09:04:16;;;;;;;;;20.00;18.33;15.60;31.00;;;;;;4956630;28;8919;-61
2022/04/13 09:06:43;;;;;;;;;21.33;18.33;15.60;31.10;;;;;;4956640;28;8789;-62
2022/04/13 09:09:21;;;;;;;;;18.67;17.67;15.80;30.90;;;;;;4956608;28;8777;-66
2022/04/13 09:11:50;;;;;;;;;22.00;21.67;16.00;32.50;;;;;;4956973;28;8792;-62
2022/04/13 09:14:17;;;;;;;;;22.00;22.00;16.20;32.00;;;;;;4955569;28;8792;-63
2022/04/13 09:16:43;;;;;;;;;29.33;28.00;16.00;32.10;;;;;;4956598;28;8777;-60
2022/04/13 09:19:10;;;;;;;;;25.00;23.00;16.30;31.70;;;;;;4956826;28;8799;-66
2022/04/13 09:21:36;;;;;;;;;22.00;22.00;16.30;32.10;;;;;;4956509;28;8787;-63
2022/04/13 09:24:05;;;;;;;;;21.00;20.33;16.20;33.60;;;;;;4956426;28;8824;-62
2022/04/13 09:26:31;;;;;;;;;23.00;20.67;16.30;32.70;;;;;;4956365;28;8801;-61
2022/04/13 09:28:57;;;;;;;;;15.67;14.33;16.70;32.30;;;;;;4956472;28;8799;-60
2022/04/13 09:31:22;;;;;;;;;24.00;23.00;17.40;32.20;;;;;;4956227;28;8789;-60
2022/04/13 09:33:49;;;;;;;;;30.67;28.33;17.10;32.40;;;;;;4956622;28;8843;-59
2022/04/13 09:36:15;;;;;;;;;45.25;39.00;16.90;31.70;;;;;;4956461;28;8796;-60
2022/04/13 09:38:42;;;;;;;;;24.00;21.00;17.00;34.10;;;;;;4956448;28;8796;-61
2022/04/13 09:41:10;;;;;;;;;18.00;15.33;17.10;32.70;;;;;;4956471;28;8780;-64
2022/04/13 09:43:36;;;;;;;;;19.00;18.00;17.50;31.80;;;;;;4956424;28;9431;-67
2022/04/13 09:46:03;;;;;;;;;21.00;20.00;17.60;31.20;;;;;;4956284;28;8788;-66
2022/04/13 09:48:29;;;;;;;;;19.33;18.33;17.40;29.60;;;;;;4956267;28;9558;-60
2022/04/13 09:50:59;;;;;;;;;23.67;21.00;17.60;32.50;;;;;;4955952;28;8808;-61
2022/04/13 09:53:26;;;;;;;;;21.00;19.00;17.30;31.10;;;;;;4955919;29;8835;-60
2022/04/13 09:55:59;;;;;;;;;16.00;16.00;17.50;31.50;;;;;;4956049;29;8765;-60
2022/04/13 09:58:28;;;;;;;;;15.67;15.67;18.10;32.00;;;;;;4956156;29;8863;-59
2022/04/13 10:00:55;;;;;;;;;19.00;19.00;17.90;29.60;;;;;;4956092;29;8803;-57
2022/04/13 10:03:23;;;;;;;;;19.67;19.67;17.90;28.10;;;;;;4955958;28;8809;-58
2022/04/13 10:05:54;;;;;;;;;14.33;14.33;18.30;29.00;;;;;;4955920;28;8816;-59
2022/04/13 10:08:24;;;;;;;;;17.33;15.33;18.40;28.50;;;;;;4956037;28;8784;-60
2022/04/13 10:10:58;;;;;;;;;16.33;15.00;18.80;30.00;;;;;;4956352;28;8924;-60
2022/04/13 10:13:33;;;;;;;;;17.33;16.33;18.70;30.10;;;;;;4955743;28;8803;-58
2022/04/13 10:16:01;;;;;;;;;15.00;14.00;18.50;29.90;;;;;;4956163;29;8911;-57
2022/04/13 10:18:28;;;;;;;;;16.00;16.00;18.60;30.20;;;;;;4954933;28;8800;-60
2022/04/13 10:20:54;;;;;;;;;15.33;15.33;18.70;28.40;;;;;;4954632;28;8777;-58
2022/04/13 10:23:20;;;;;;;;;20.33;14.67;19.00;28.70;;;;;;4954853;28;8884;-59
2022/04/13 10:25:45;;;;;;;;;18.33;16.00;19.20;29.40;;;;;;4954555;29;8817;-59
2022/04/13 10:28:14;;;;;;;;;16.67;16.67;19.50;29.70;;;;;;4954839;28;8788;-57
2022/04/13 10:30:42;;;;;;;;;19.00;19.00;19.70;29.20;;;;;;4954477;29;8793;-59
2022/04/13 10:33:11;;;;;;;;;15.33;15.33;19.60;28.90;;;;;;4954799;29;8808;-58
2022/04/13 10:35:43;;;;;;;;;18.00;17.00;19.80;29.20;;;;;;4955118;28;8777;-56
2022/04/13 10:38:10;;;;;;;;;16.00;16.00;19.90;28.70;;;;;;4954759;28;8787;-57
2022/04/13 10:40:41;;;;;;;;;21.33;19.67;20.00;28.50;;;;;;4955117;28;8760;-57
2022/04/13 10:43:12;;;;;;;;;18.33;17.67;20.00;28.50;;;;;;4954924;28;8776;-57
2022/04/13 10:45:40;;;;;;;;;11.33;10.33;20.20;27.70;;;;;;4955292;29;8804;-56
2022/04/13 10:48:10;;;;;;;;;17.67;17.00;20.00;27.90;;;;;;4955008;28;8891;-57
2022/04/13 10:50:48;;;;;;;;;18.33;17.33;20.00;28.50;;;;;;4955128;29;8749;-55
2022/04/13 10:53:27;;;;;;;;;17.67;17.67;20.00;28.00;;;;;;4953839;29;8796;-58
2022/04/13 10:55:58;;;;;;;;;17.00;16.67;20.10;29.20;;;;;;4953821;29;8780;-59
2022/04/13 10:58:52;;;;;;;;;18.33;18.33;20.70;29.30;;;;;;4955223;29;8780;-56
2022/04/13 11:01:20;;;;;;;;;17.67;16.67;20.70;28.10;;;;;;4954095;29;8779;-57
2022/04/13 11:03:47;;;;;;;;;17.67;16.00;21.00;27.40;;;;;;4952827;29;8796;-59
2022/04/13 11:06:13;;;;;;;;;13.67;13.67;21.40;27.50;;;;;;4957324;28;8962;-57
2022/04/13 11:08:48;;;;;;;;;17.33;16.00;21.40;27.60;;;;;;4958948;28;8792;-57
2022/04/13 11:11:20;;;;;;;;;19.00;18.00;21.60;26.20;;;;;;4959038;28;8815;-56
2022/04/13 11:13:48;;;;;;;;;19.33;18.00;20.90;26.50;;;;;;4958974;28;8800;-57
2022/04/13 11:16:25;;;;;;;;;15.00;15.00;21.20;25.30;;;;;;4959078;28;9505;-56
2022/04/13 11:19:06;;;;;;;;;14.33;14.33;20.90;24.90;;;;;;4958900;28;9466;-58
2022/04/13 11:21:55;;;;;;;;;18.33;17.00;21.30;25.80;;;;;;4958853;28;8787;-58
2022/04/13 11:24:39;;;;;;;;;19.00;16.00;21.70;26.00;;;;;;4945229;28;8862;-57
2022/04/13 11:27:09;;;;;;;;;12.67;12.67;22.80;24.90;;;;;;4958780;28;8796;-58
2022/04/13 11:29:38;;;;;;;;;18.00;17.00;23.00;24.80;;;;;;4957736;28;8785;-59
2022/04/13 11:32:07;;;;;;;;;16.00;14.00;22.90;24.60;;;;;;4958354;28;8854;-59
2022/04/13 11:34:45;;;;;;;;;12.67;11.67;22.60;24.70;;;;;;4958619;28;8792;-58
2022/04/13 11:37:23;;;;;;;;;15.33;14.00;22.10;24.70;;;;;;4958476;28;11560;-56
2022/04/13 11:39:57;;;;;;;;;13.00;12.00;22.10;26.30;;;;;;4958553;28;11546;-56
2022/04/13 11:42:25;;;;;;;;;16.00;14.33;22.20;25.00;;;;;;4958342;28;11556;-57
2022/04/13 11:44:59;;;;;;;;;14.67;14.67;23.20;25.20;;;;;;4958230;28;11552;-57
2022/04/13 11:47:35;;;;;;;;;12.33;12.33;24.00;24.80;;;;;;4958209;28;8796;-54
2022/04/13 11:50:04;;;;;;;;;11.00;11.00;24.10;24.50;;;;;;4957909;28;11538;-56
2022/04/13 11:52:46;;;;;;;;;19.33;19.33;23.90;22.60;;;;;;4957822;28;11599;-57
2022/04/13 11:55:42;;;;;;;;;15.33;14.33;23.80;23.50;;;;;;4958317;28;8883;-57
2022/04/13 11:58:07;;;;;;;;;16.67;16.67;24.40;23.30;;;;;;4951192;28;11549;-56
2022/04/13 12:00:56;;;;;;;;;11.67;10.67;24.90;21.90;;;;;;4957748;28;11577;-56
2022/04/13 12:03:39;;;;;;;;;11.33;11.00;25.10;22.90;;;;;;4957829;28;8828;-58
2022/04/13 12:06:08;;;;;;;;;11.33;11.33;24.20;22.30;;;;;;4957902;28;11662;-60
2022/04/13 12:08:44;;;;;;;;;14.33;13.33;24.50;20.90;;;;;;4957644;28;11573;-57
2022/04/13 12:11:13;;;;;;;;;16.00;13.33;24.20;21.80;;;;;;4957620;28;11562;-56
2022/04/13 12:13:49;;;;;;;;;11.33;11.33;24.50;21.00;;;;;;4957681;28;11517;-56
2022/04/13 12:16:27;;;;;;;;;12.67;12.67;25.40;21.90;;;;;;4957340;28;11596;-56
2022/04/13 12:19:01;;;;;;;;;14.75;14.75;24.90;21.20;;;;;;4957446;28;11549;-55
2022/04/13 12:21:29;;;;;;;;;11.00;11.00;24.80;19.60;;;;;;4957430;28;11600;-55
2022/04/13 12:23:56;;;;;;;;;12.50;12.50;24.50;19.90;;;;;;4957405;28;11535;-55
2022/04/13 12:26:39;;;;;;;;;15.50;13.50;25.20;21.90;;;;;;4957308;28;11646;-56
2022/04/13 12:29:18;;;;;;;;;10.25;10.25;25.80;20.60;;;;;;4957481;28;11618;-57
2022/04/13 12:31:52;;;;;;;;;9.75;9.75;26.20;21.30;;;;;;4957401;28;11535;-55
2022/04/13 12:34:23;;;;;;;;;8.25;8.25;26.00;21.00;;;;;;4956998;28;11545;-54
2022/04/13 12:36:49;;;;;;;;;10.00;10.00;27.40;20.00;;;;;;4957471;28;11478;-58
2022/04/13 12:39:15;;;;;;;;;8.50;8.50;31.80;17.80;;;;;;4957309;28;11492;-58